Terminal Aerodrome Forecast
Issued by NWS Sterling, VA

Current Version | Previous Version | Text Only | Print | Product List | Glossary Off
Versions: 1 2 3 4 5 6 7 8 9 10 11 12 13 14 15 16 17 18 19

829
FTUS41 KLWX 290540 AAB
TAFMRB
TAF AMD
KMRB 290540Z 2906/3006 34004KT 2SM SHRA BR OVC008
     FM290800 VRB03KT 5SM -SHRA BR OVC008
     FM291000 33004KT 5SM BR OVC010
     FM291300 34006KT P6SM BKN040
     FM300100 00000KT P6SM BKN050=

USA.gov is the U.S. government's official web portal to all federal, state and local government web resources and services.